createdAt,value
2023-08-22T09:18:25.861Z,25.49
2023-08-22T09:22:48.902Z,26.14
2023-08-22T12:46:09.961Z,27.59
2023-08-22T13:05:26.053Z,28.15
2023-08-22T13:09:40.917Z,28.30
2023-08-22T13:13:42.691Z,28.25
2023-08-22T13:17:50.920Z,28.23
2023-08-22T13:41:14.578Z,27.68
2023-08-22T13:45:22.440Z,27.64
2023-08-22T13:49:30.466Z,27.22
2023-08-22T13:53:32.762Z,27.11
2023-08-22T14:02:01.602Z,27.16
2023-08-22T14:06:11.402Z,27.22
2023-08-22T14:10:13.065Z,27.42
2023-08-22T14:19:26.462Z,27.57
2023-08-22T14:23:34.955Z,27.94
2023-08-22T14:27:43.450Z,27.99
2023-08-22T14:31:51.499Z,28.12
2023-08-22T17:25:51.375Z,24.73
2023-08-22T17:30:13.638Z,24.34
2023-08-22T17:34:21.475Z,24.41
2023-08-22T17:39:01.560Z,24.50
2023-08-22T17:43:16.544Z,24.35
2023-08-22T17:47:24.555Z,24.29
2023-08-22T17:51:32.463Z,24.30
2023-08-22T17:55:41.633Z,24.23
2023-08-22T17:59:52.527Z,24.14
2023-08-22T18:42:31.480Z,22.72
2023-08-22T18:46:33.054Z,22.63
2023-08-22T18:50:41.611Z,22.52
2023-08-22T18:54:49.513Z,22.33
2023-08-22T18:58:51.117Z,22.18
2023-08-22T19:02:59.525Z,22.13
2023-08-22T19:07:07.548Z,21.94
2023-08-22T19:11:09.616Z,21.79
2023-08-22T19:15:17.566Z,21.66
2023-08-22T19:19:25.478Z,21.58
2023-08-22T19:23:27.080Z,21.42
2023-08-22T19:27:36.634Z,21.39
2023-08-22T19:31:38.338Z,21.26
2023-08-22T19:35:46.512Z,21.11
2023-08-22T19:39:49.028Z,20.99
2023-08-22T19:43:58.473Z,20.83
2023-08-22T19:48:06.565Z,20.76
2023-08-22T19:52:16.529Z,20.70
2023-08-22T19:56:18.010Z,20.57
2023-08-22T20:00:26.569Z,20.50
2023-08-22T20:04:34.460Z,20.39
2023-08-22T20:08:42.564Z,20.36
2023-08-22T20:12:45.052Z,20.14
2023-08-22T20:16:53.513Z,20.05
2023-08-22T20:21:02.514Z,20.10
2023-08-22T20:25:17.474Z,19.97
2023-08-22T20:29:25.581Z,19.92
2023-08-22T20:33:33.491Z,19.85
2023-08-22T20:37:41.537Z,19.68
2023-08-22T20:41:43.097Z,19.68
2023-08-22T20:45:52.564Z,19.47
2023-08-22T20:49:56.975Z,19.51
2023-08-22T20:54:11.548Z,19.33
2023-08-22T20:58:13.110Z,19.32
2023-08-22T21:12:54.782Z,18.95
2023-08-22T21:17:09.761Z,18.73
2023-08-22T21:21:17.673Z,18.70
2023-08-22T21:25:25.681Z,18.50
2023-08-22T21:29:47.628Z,18.49
2023-08-22T21:34:02.595Z,18.41
2023-08-22T22:34:12.518Z,17.57
2023-08-22T22:38:27.679Z,17.47
2023-08-22T22:42:29.307Z,17.45
2023-08-22T22:46:37.546Z,17.40
2023-08-22T22:50:47.557Z,17.29
2023-08-22T22:54:49.234Z,17.27
2023-08-22T23:03:16.615Z,17.11
2023-08-22T23:07:24.528Z,16.99
2023-08-22T23:11:44.349Z,16.98
2023-08-22T23:16:03.627Z,17.00
2023-08-22T23:25:31.501Z,16.61
2023-08-22T23:34:24.505Z,16.83
2023-08-22T23:38:32.524Z,16.73
2023-08-22T23:42:40.538Z,16.74
2023-08-22T23:46:42.208Z,16.75
2023-08-22T23:51:10.976Z,16.62
2023-08-22T23:55:17.998Z,16.54
2023-08-22T23:59:26.527Z,16.56
